sensor_id;sensor_type;location;lat;lon;timestamp;pressure;altitude;pressure_sealevel;temperature;humidity
44457;BME280;30159;49.316;8.558;2022-11-21T00:01:59;99556.47;;;7.00;100.00
44457;BME280;30159;49.316;8.558;2022-11-21T00:04:27;99561.03;;;6.94;100.00
44457;BME280;30159;49.316;8.558;2022-11-21T00:06:54;99563.22;;;6.92;100.00
44457;BME280;30159;49.316;8.558;2022-11-21T00:09:20;99562.13;;;6.93;100.00
44457;BME280;30159;49.316;8.558;2022-11-21T00:11:49;99564.00;;;6.93;100.00
44457;BME280;30159;49.316;8.558;2022-11-21T00:14:16;99557.03;;;6.92;100.00
44457;BME280;30159;49.316;8.558;2022-11-21T00:16:44;99548.19;;;6.91;100.00
44457;BME280;30159;49.316;8.558;2022-11-21T00:19:10;99555.13;;;6.97;100.00
44457;BME280;30159;49.316;8.558;2022-11-21T00:21:39;99534.81;;;6.86;100.00
44457;BME280;30159;49.316;8.558;2022-11-21T00:24:08;99551.63;;;7.02;100.00
44457;BME280;30159;49.316;8.558;2022-11-21T00:26:36;99544.09;;;7.04;100.00
44457;BME280;30159;49.316;8.558;2022-11-21T00:29:03;99543.59;;;7.02;100.00
44457;BME280;30159;49.316;8.558;2022-11-21T00:31:29;99540.91;;;7.02;100.00
44457;BME280;30159;49.316;8.558;2022-11-21T00:33:56;99483.44;;;6.69;100.00
44457;BME280;30159;49.316;8.558;2022-11-21T00:36:22;99537.63;;;7.10;100.00
44457;BME280;30159;49.316;8.558;2022-11-21T00:38:50;99533.91;;;7.01;100.00
44457;BME280;30159;49.316;8.558;2022-11-21T00:41:17;99530.97;;;7.03;100.00
44457;BME280;30159;49.316;8.558;2022-11-21T00:43:43;99534.19;;;7.05;100.00
44457;BME280;30159;49.316;8.558;2022-11-21T00:46:10;99515.44;;;6.94;100.00
44457;BME280;30159;49.316;8.558;2022-11-21T00:48:36;99509.88;;;6.91;100.00
44457;BME280;30159;49.316;8.558;2022-11-21T00:51:03;99531.28;;;6.96;100.00
44457;BME280;30159;49.316;8.558;2022-11-21T00:53:29;99532.63;;;6.93;100.00
44457;BME280;30159;49.316;8.558;2022-11-21T00:55:57;99527.00;;;6.95;100.00
44457;BME280;30159;49.316;8.558;2022-11-21T00:58:24;99538.25;;;6.97;100.00
44457;BME280;30159;49.316;8.558;2022-11-21T01:00:50;99528.84;;;6.94;100.00
44457;BME280;30159;49.316;8.558;2022-11-21T01:03:17;99519.25;;;6.88;100.00
44457;BME280;30159;49.316;8.558;2022-11-21T01:05:43;99524.31;;;6.95;100.00
44457;BME280;30159;49.316;8.558;2022-11-21T01:08:10;99523.00;;;6.92;100.00
44457;BME280;30159;49.316;8.558;2022-11-21T01:10:37;99517.34;;;6.94;100.00
44457;BME280;30159;49.316;8.558;2022-11-21T01:13:04;99522.47;;;6.90;100.00
44457;BME280;30159;49.316;8.558;2022-11-21T01:15:32;99508.50;;;6.93;100.00
44457;BME280;30159;49.316;8.558;2022-11-21T01:17:59;99511.25;;;6.83;100.00
44457;BME280;30159;49.316;8.558;2022-11-21T01:20:26;99524.59;;;6.93;100.00
44457;BME280;30159;49.316;8.558;2022-11-21T01:22:52;99524.59;;;6.93;100.00
44457;BME280;30159;49.316;8.558;2022-11-21T01:25:19;99528.31;;;6.97;100.00
44457;BME280;30159;49.316;8.558;2022-11-21T01:27:45;99526.22;;;6.89;100.00
44457;BME280;30159;49.316;8.558;2022-11-21T01:30:14;99504.72;;;7.00;100.00
44457;BME280;30159;49.316;8.558;2022-11-21T01:32:41;99513.25;;;7.07;100.00
44457;BME280;30159;49.316;8.558;2022-11-21T01:35:08;99509.44;;;7.13;100.00
44457;BME280;30159;49.316;8.558;2022-11-21T01:37:34;99505.22;;;7.07;100.00
44457;BME280;30159;49.316;8.558;2022-11-21T01:40:01;99505.75;;;7.09;100.00
44457;BME280;30159;49.316;8.558;2022-11-21T01:42:28;99496.34;;;7.11;100.00
44457;BME280;30159;49.316;8.558;2022-11-21T01:44:54;99491.28;;;7.05;100.00
44457;BME280;30159;49.316;8.558;2022-11-21T01:47:22;99491.28;;;7.05;100.00
44457;BME280;30159;49.316;8.558;2022-11-21T01:49:49;99490.50;;;7.04;100.00
44457;BME280;30159;49.316;8.558;2022-11-21T01:52:20;99478.44;;;7.02;100.00
44457;BME280;30159;49.316;8.558;2022-11-21T01:54:52;99492.34;;;7.09;100.00
44457;BME280;30159;49.316;8.558;2022-11-21T01:57:22;99495.50;;;7.16;100.00
44457;BME280;30159;49.316;8.558;2022-11-21T01:59:54;99506.75;;;7.18;100.00
44457;BME280;30159;49.316;8.558;2022-11-21T02:02:27;99500.66;;;7.07;100.00
44457;BME280;30159;49.316;8.558;2022-11-21T02:04:55;99508.38;;;7.14;100.00
44457;BME280;30159;49.316;8.558;2022-11-21T02:07:23;99522.84;;;7.18;100.00
44457;BME280;30159;49.316;8.558;2022-11-21T02:09:53;99518.81;;;7.21;100.00
44457;BME280;30159;49.316;8.558;2022-11-21T02:12:24;99444.84;;;6.70;100.00
44457;BME280;30159;49.316;8.558;2022-11-21T02:14:52;99523.88;;;7.22;100.00
44457;BME280;30159;49.316;8.558;2022-11-21T02:17:20;99507.78;;;7.22;100.00
44457;BME280;30159;49.316;8.558;2022-11-21T02:19:52;99489.03;;;7.17;100.00
44457;BME280;30159;49.316;8.558;2022-11-21T02:22:27;99518.19;;;7.29;100.00
44457;BME280;30159;49.316;8.558;2022-11-21T02:25:02;99528.09;;;7.33;100.00
44457;BME280;30159;49.316;8.558;2022-11-21T02:27:29;99511.16;;;7.38;100.00
44457;BME280;30159;49.316;8.558;2022-11-21T02:29:55;99522.84;;;7.52;100.00
44457;BME280;30159;49.316;8.558;2022-11-21T02:32:23;99524.16;;;7.55;100.00
44457;BME280;30159;49.316;8.558;2022-11-21T02:34:50;99524.41;;;7.58;100.00
44457;BME280;30159;49.316;8.558;2022-11-21T02:37:17;99470.22;;;7.22;100.00
44457;BME280;30159;49.316;8.558;2022-11-21T02:39:45;99518.41;;;7.37;100.00
44457;BME280;30159;49.316;8.558;2022-11-21T02:42:17;99522.19;;;7.31;100.00
44457;BME280;30159;49.316;8.558;2022-11-21T02:45:00;99521.72;;;7.24;100.00
44457;BME280;30159;49.316;8.558;2022-11-21T02:47:29;99526.56;;;7.22;100.00
44457;BME280;30159;49.316;8.558;2022-11-21T02:50:01;99532.44;;;7.24;100.00
44457;BME280;30159;49.316;8.558;2022-11-21T02:52:30;99530.00;;;7.28;100.00
44457;BME280;30159;49.316;8.558;2022-11-21T02:54:56;99524.09;;;7.31;100.00
44457;BME280;30159;49.316;8.558;2022-11-21T02:57:24;99527.56;;;7.31;100.00
44457;BME280;30159;49.316;8.558;2022-11-21T02:59:51;99520.09;;;7.28;100.00
44457;BME280;30159;49.316;8.558;2022-11-21T03:02:17;99521.72;;;7.24;100.00
44457;BME280;30159;49.316;8.558;2022-11-21T03:04:44;99519.00;;;7.29;100.00
44457;BME280;30159;49.316;8.558;2022-11-21T03:07:10;99519.50;;;7.31;100.00
44457;BME280;30159;49.316;8.558;2022-11-21T03:09:37;99521.66;;;7.29;100.00
44457;BME280;30159;49.316;8.558;2022-11-21T03:12:07;99523.28;;;7.30;100.00
44457;BME280;30159;49.316;8.558;2022-11-21T03:14:35;99512.00;;;7.33;100.00
44457;BME280;30159;49.316;8.558;2022-11-21T03:17:03;99441.84;;;6.82;100.00
44457;BME280;30159;49.316;8.558;2022-11-21T03:19:29;99501.88;;;7.25;100.00
44457;BME280;30159;49.316;8.558;2022-11-21T03:21:56;99501.06;;;7.25;100.00
44457;BME280;30159;49.316;8.558;2022-11-21T03:24:23;99493.31;;;7.23;100.00
44457;BME280;30159;49.316;8.558;2022-11-21T03:26:49;99517.88;;;7.35;100.00
44457;BME280;30159;49.316;8.558;2022-11-21T03:29:16;99497.53;;;7.34;100.00
44457;BME280;30159;49.316;8.558;2022-11-21T03:31:43;99449.50;;;6.99;100.00
44457;BME280;30159;49.316;8.558;2022-11-21T03:34:10;99497.06;;;7.22;100.00
44457;BME280;30159;49.316;8.558;2022-11-21T03:36:37;99506.66;;;7.28;100.00
44457;BME280;30159;49.316;8.558;2022-11-21T03:39:04;99485.03;;;7.14;100.00
44457;BME280;30159;49.316;8.558;2022-11-21T03:41:30;99509.13;;;7.20;100.00
44457;BME280;30159;49.316;8.558;2022-11-21T03:43:58;99500.88;;;7.16;100.00
44457;BME280;30159;49.316;8.558;2022-11-21T03:46:24;99497.09;;;7.17;100.00
44457;BME280;30159;49.316;8.558;2022-11-21T03:48:52;99507.25;;;7.20;100.00
44457;BME280;30159;49.316;8.558;2022-11-21T03:51:19;99475.00;;;6.91;100.00
44457;BME280;30159;49.316;8.558;2022-11-21T03:53:46;99489.66;;;7.04;100.00
44457;BME280;30159;49.316;8.558;2022-11-21T03:56:13;99487.28;;;7.02;100.00
44457;BME280;30159;49.316;8.558;2022-11-21T03:58:40;99474.81;;;6.77;100.00
44457;BME280;30159;49.316;8.558;2022-11-21T04:01:07;99494.13;;;6.79;100.00
44457;BME280;30159;49.316;8.558;2022-11-21T04:03:33;99488.19;;;6.82;100.00
44457;BME280;30159;49.316;8.558;2022-11-21T04:06:01;99494.03;;;6.89;100.00
44457;BME280;30159;49.316;8.558;2022-11-21T04:08:28;99499.41;;;6.89;100.00
44457;BME280;30159;49.316;8.558;2022-11-21T04:10:54;99491.84;;;6.96;100.00
44457;BME280;30159;49.316;8.558;2022-11-21T04:13:21;99492.91;;;7.01;100.00
44457;BME280;30159;49.316;8.558;2022-11-21T04:15:48;99496.59;;;7.10;100.00
44457;BME280;30159;49.316;8.558;2022-11-21T04:18:15;99362.59;;;6.26;100.00
44457;BME280;30159;49.316;8.558;2022-11-21T04:20:42;99492.22;;;7.24;100.00
44457;BME280;30159;49.316;8.558;2022-11-21T04:23:09;99487.47;;;7.16;100.00
44457;BME280;30159;49.316;8.558;2022-11-21T04:25:36;99490.09;;;7.21;100.00
44457;BME280;30159;49.316;8.558;2022-11-21T04:28:03;99487.09;;;7.28;100.00
44457;BME280;30159;49.316;8.558;2022-11-21T04:30:31;99489.53;;;7.24;100.00
44457;BME280;30159;49.316;8.558;2022-11-21T04:32:57;99483.06;;;7.30;100.00
44457;BME280;30159;49.316;8.558;2022-11-21T04:35:25;99485.47;;;7.27;100.00
44457;BME280;30159;49.316;8.558;2022-11-21T04:37:52;99485.97;;;7.34;100.00
44457;BME280;30159;49.316;8.558;2022-11-21T04:40:19;99452.59;;;7.16;100.00
44457;BME280;30159;49.316;8.558;2022-11-21T04:42:46;99492.63;;;7.42;100.00
44457;BME280;30159;49.316;8.558;2022-11-21T04:45:14;99440.50;;;7.18;100.00
44457;BME280;30159;49.316;8.558;2022-11-21T04:47:43;99492.59;;;7.47;100.00
44457;BME280;30159;49.316;8.558;2022-11-21T04:50:12;99491.81;;;7.41;100.00
44457;BME280;30159;49.316;8.558;2022-11-21T04:52:39;99491.31;;;7.39;100.00
44457;BME280;30159;49.316;8.558;2022-11-21T04:55:06;99489.09;;;7.46;100.00
44457;BME280;30159;49.316;8.558;2022-11-21T04:57:34;99475.44;;;7.43;100.00
44457;BME280;30159;49.316;8.558;2022-11-21T05:00:01;99480.22;;;7.46;100.00
44457;BME280;30159;49.316;8.558;2022-11-21T05:02:27;99487.28;;;7.36;100.00
44457;BME280;30159;49.316;8.558;2022-11-21T05:04:54;99461.13;;;7.23;100.00
44457;BME280;30159;49.316;8.558;2022-11-21T05:07:20;99464.28;;;7.30;100.00
44457;BME280;30159;49.316;8.558;2022-11-21T05:09:47;99478.91;;;7.43;100.00
44457;BME280;30159;49.316;8.558;2022-11-21T05:12:13;99473.53;;;7.48;100.00
44457;BME280;30159;49.316;8.558;2022-11-21T05:14:59;99477.56;;;7.46;100.00
44457;BME280;30159;49.316;8.558;2022-11-21T05:17:26;99459.34;;;7.43;100.00
44457;BME280;30159;49.316;8.558;2022-11-21T05:19:53;99464.25;;;7.35;100.00
44457;BME280;30159;49.316;8.558;2022-11-21T05:22:21;99465.06;;;7.31;100.00
44457;BME280;30159;49.316;8.558;2022-11-21T05:24:48;99460.56;;;7.26;100.00
44457;BME280;30159;49.316;8.558;2022-11-21T05:27:15;99466.72;;;7.27;100.00
44457;BME280;30159;49.316;8.558;2022-11-21T05:29:41;99455.81;;;7.13;100.00
44457;BME280;30159;49.316;8.558;2022-11-21T05:32:09;99475.75;;;7.36;100.00
44457;BME280;30159;49.316;8.558;2022-11-21T05:34:36;99478.22;;;7.32;100.00
44457;BME280;30159;49.316;8.558;2022-11-21T05:37:02;99477.38;;;7.37;100.00
44457;BME280;30159;49.316;8.558;2022-11-21T05:39:29;99470.72;;;7.29;100.00
44457;BME280;30159;49.316;8.558;2022-11-21T05:41:55;99463.44;;;7.35;100.00
44457;BME280;30159;49.316;8.558;2022-11-21T05:44:22;99467.75;;;7.31;100.00
44457;BME280;30159;49.316;8.558;2022-11-21T05:46:47;99482.91;;;7.51;100.00
44457;BME280;30159;49.316;8.558;2022-11-21T05:49:15;99477.19;;;7.57;100.00
44457;BME280;30159;49.316;8.558;2022-11-21T05:51:42;99482.78;;;7.61;100.00
44457;BME280;30159;49.316;8.558;2022-11-21T05:54:11;99483.06;;;7.65;100.00
44457;BME280;30159;49.316;8.558;2022-11-21T05:56:38;99487.38;;;7.60;100.00
44457;BME280;30159;49.316;8.558;2022-11-21T05:59:04;99477.47;;;7.56;100.00
44457;BME280;30159;49.316;8.558;2022-11-21T06:01:31;99478.81;;;7.58;100.00
44457;BME280;30159;49.316;8.558;2022-11-21T06:04:16;99484.63;;;7.66;100.00
44457;BME280;30159;49.316;8.558;2022-11-21T06:06:43;99482.22;;;7.64;100.00
44457;BME280;30159;49.316;8.558;2022-11-21T06:09:10;99482.16;;;7.74;100.00
44457;BME280;30159;49.316;8.558;2022-11-21T06:11:36;99475.16;;;7.73;100.00
44457;BME280;30159;49.316;8.558;2022-11-21T06:14:03;99475.75;;;7.70;100.00
44457;BME280;30159;49.316;8.558;2022-11-21T06:16:29;99473.91;;;7.66;100.00
44457;BME280;30159;49.316;8.558;2022-11-21T06:18:56;99467.50;;;7.62;100.00
44457;BME280;30159;49.316;8.558;2022-11-21T06:21:25;99461.66;;;7.54;100.00
44457;BME280;30159;49.316;8.558;2022-11-21T06:23:53;99459.59;;;7.46;100.00
44457;BME280;30159;49.316;8.558;2022-11-21T06:26:22;99473.75;;;7.52;100.00
44457;BME280;30159;49.316;8.558;2022-11-21T06:28:49;99473.75;;;7.52;100.00
44457;BME280;30159;49.316;8.558;2022-11-21T06:31:17;99477.00;;;7.49;100.00
44457;BME280;30159;49.316;8.558;2022-11-21T06:33:44;99467.50;;;7.32;100.00
44457;BME280;30159;49.316;8.558;2022-11-21T06:36:12;99479.97;;;7.47;100.00
44457;BME280;30159;49.316;8.558;2022-11-21T06:38:41;99455.34;;;7.40;100.00
44457;BME280;30159;49.316;8.558;2022-11-21T06:41:10;99480.16;;;7.56;100.00
44457;BME280;30159;49.316;8.558;2022-11-21T06:43:37;99415.59;;;7.18;100.00
44457;BME280;30159;49.316;8.558;2022-11-21T06:46:05;99477.69;;;7.59;100.00
44457;BME280;30159;49.316;8.558;2022-11-21T06:48:32;99479.59;;;7.59;100.00
44457;BME280;30159;49.316;8.558;2022-11-21T06:51:03;99483.13;;;7.54;100.00
44457;BME280;30159;49.316;8.558;2022-11-21T06:53:31;99488.75;;;7.58;100.00
44457;BME280;30159;49.316;8.558;2022-11-21T06:56:00;99479.13;;;7.52;100.00
44457;BME280;30159;49.316;8.558;2022-11-21T06:58:27;99481.38;;;7.39;100.00
44457;BME280;30159;49.316;8.558;2022-11-21T07:00:53;99418.38;;;7.03;100.00
44457;BME280;30159;49.316;8.558;2022-11-21T07:03:20;99429.00;;;7.13;100.00
44457;BME280;30159;49.316;8.558;2022-11-21T07:05:47;99488.25;;;7.51;100.00
44457;BME280;30159;49.316;8.558;2022-11-21T07:08:15;99485.84;;;7.49;100.00
44457;BME280;30159;49.316;8.558;2022-11-21T07:10:41;99463.13;;;7.42;100.00
44457;BME280;30159;49.316;8.558;2022-11-21T07:13:10;99472.66;;;7.53;100.00
44457;BME280;30159;49.316;8.558;2022-11-21T07:15:51;99483.69;;;7.51;100.00
44457;BME280;30159;49.316;8.558;2022-11-21T07:18:18;99484.91;;;7.64;100.00
44457;BME280;30159;49.316;8.558;2022-11-21T07:20:45;99487.84;;;7.68;100.00
44457;BME280;30159;49.316;8.558;2022-11-21T07:23:12;99487.91;;;7.63;100.00
44457;BME280;30159;49.316;8.558;2022-11-21T07:25:39;99495.06;;;7.72;100.00
44457;BME280;30159;49.316;8.558;2022-11-21T07:28:07;99482.69;;;7.71;100.00
44457;BME280;30159;49.316;8.558;2022-11-21T07:30:35;99498.84;;;7.95;100.00
44457;BME280;30159;49.316;8.558;2022-11-21T07:33:03;99501.25;;;7.97;100.00
44457;BME280;30159;49.316;8.558;2022-11-21T07:35:31;99498.53;;;8.02;100.00
44457;BME280;30159;49.316;8.558;2022-11-21T07:37:58;99489.63;;;8.07;100.00
44457;BME280;30159;49.316;8.558;2022-11-21T07:40:25;99487.78;;;8.02;100.00
44457;BME280;30159;49.316;8.558;2022-11-21T07:42:51;99492.91;;;7.98;100.00
44457;BME280;30159;49.316;8.558;2022-11-21T07:45:18;99502.53;;;8.05;100.00
44457;BME280;30159;49.316;8.558;2022-11-21T07:47:47;99490.69;;;8.06;100.00
44457;BME280;30159;49.316;8.558;2022-11-21T07:50:13;99500.25;;;8.17;100.00
44457;BME280;30159;49.316;8.558;2022-11-21T07:52:40;99504.75;;;8.21;100.00
44457;BME280;30159;49.316;8.558;2022-11-21T07:55:07;99501.03;;;8.17;100.00
44457;BME280;30159;49.316;8.558;2022-11-21T07:57:34;99507.50;;;8.16;100.00
44457;BME280;30159;49.316;8.558;2022-11-21T08:00:01;99506.88;;;8.24;100.00
44457;BME280;30159;49.316;8.558;2022-11-21T08:02:27;99502.19;;;8.11;100.00
44457;BME280;30159;49.316;8.558;2022-11-21T08:04:55;99500.69;;;8.00;100.00
44457;BME280;30159;49.316;8.558;2022-11-21T08:07:22;99500.50;;;7.91;100.00
44457;BME280;30159;49.316;8.558;2022-11-21T08:09:49;99507.75;;;7.91;100.00
44457;BME280;30159;49.316;8.558;2022-11-21T08:12:16;99490.28;;;7.93;100.00
44457;BME280;30159;49.316;8.558;2022-11-21T08:14:42;99495.41;;;7.90;100.00
44457;BME280;30159;49.316;8.558;2022-11-21T08:17:09;99474.63;;;7.76;100.00
44457;BME280;30159;49.316;8.558;2022-11-21T08:19:35;99495.97;;;7.87;100.00
44457;BME280;30159;49.316;8.558;2022-11-21T08:22:03;99504.88;;;7.82;100.00
44457;BME280;30159;49.316;8.558;2022-11-21T08:24:30;99490.94;;;7.80;100.00
44457;BME280;30159;49.316;8.558;2022-11-21T08:26:58;99493.03;;;7.88;100.00
44457;BME280;30159;49.316;8.558;2022-11-21T08:29:25;99484.22;;;7.82;100.00
44457;BME280;30159;49.316;8.558;2022-11-21T08:31:52;99489.56;;;7.82;100.00
44457;BME280;30159;49.316;8.558;2022-11-21T08:34:18;99487.88;;;7.92;100.00
44457;BME280;30159;49.316;8.558;2022-11-21T08:36:45;99487.81;;;7.97;100.00
44457;BME280;30159;49.316;8.558;2022-11-21T08:39:13;99484.84;;;7.98;100.00
44457;BME280;30159;49.316;8.558;2022-11-21T08:41:39;99485.19;;;7.92;100.00
44457;BME280;30159;49.316;8.558;2022-11-21T08:44:23;99465.94;;;7.85;100.00
44457;BME280;30159;49.316;8.558;2022-11-21T08:46:50;99486.97;;;8.01;100.00
44457;BME280;30159;49.316;8.558;2022-11-21T08:49:16;99481.31;;;8.03;100.00
44457;BME280;30159;49.316;8.558;2022-11-21T08:51:43;99466.91;;;7.94;100.00
44457;BME280;30159;49.316;8.558;2022-11-21T08:54:14;99487.16;;;8.10;100.00
44457;BME280;30159;49.316;8.558;2022-11-21T08:56:41;99485.72;;;8.18;100.00
44457;BME280;30159;49.316;8.558;2022-11-21T08:59:07;99477.19;;;8.40;100.00
44457;BME280;30159;49.316;8.558;2022-11-21T09:01:34;99471.25;;;8.62;100.00
44457;BME280;30159;49.316;8.558;2022-11-21T09:04:00;99481.81;;;8.77;100.00
44457;BME280;30159;49.316;8.558;2022-11-21T09:06:27;99467.13;;;8.89;99.10
44457;BME280;30159;49.316;8.558;2022-11-21T09:08:53;99471.63;;;8.93;98.31
44457;BME280;30159;49.316;8.558;2022-11-21T09:11:21;99487.19;;;8.96;98.31
44457;BME280;30159;49.316;8.558;2022-11-21T09:13:49;99468.94;;;8.93;98.78
44457;BME280;30159;49.316;8.558;2022-11-21T09:16:29;99461.75;;;8.89;98.21
44457;BME280;30159;49.316;8.558;2022-11-21T09:19:13;99467.25;;;8.78;98.84
44457;BME280;30159;49.316;8.558;2022-11-21T09:21:40;99447.34;;;8.60;98.93
44457;BME280;30159;49.316;8.558;2022-11-21T09:24:07;99468.13;;;8.74;100.00
44457;BME280;30159;49.316;8.558;2022-11-21T09:26:35;99460.88;;;8.74;99.88
44457;BME280;30159;49.316;8.558;2022-11-21T09:29:01;99468.06;;;8.79;99.34
44457;BME280;30159;49.316;8.558;2022-11-21T09:31:28;99467.25;;;8.78;100.00
44457;BME280;30159;49.316;8.558;2022-11-21T09:33:55;99467.63;;;8.72;100.00
44457;BME280;30159;49.316;8.558;2022-11-21T09:36:22;99474.59;;;8.73;100.00
44457;BME280;30159;49.316;8.558;2022-11-21T09:38:50;99449.91;;;8.71;100.00
44457;BME280;30159;49.316;8.558;2022-11-21T09:41:24;99444.69;;;8.79;100.00
44457;BME280;30159;49.316;8.558;2022-11-21T09:44:21;99447.00;;;8.86;100.00
44457;BME280;30159;49.316;8.558;2022-11-21T09:46:57;99435.38;;;8.91;100.00
44457;BME280;30159;49.316;8.558;2022-11-21T09:49:26;99441.97;;;8.98;100.00
44457;BME280;30159;49.316;8.558;2022-11-21T09:51:55;99439.78;;;9.00;100.00
44457;BME280;30159;49.316;8.558;2022-11-21T09:54:27;99437.16;;;9.14;100.00
44457;BME280;30159;49.316;8.558;2022-11-21T09:56:56;99437.25;;;9.09;99.29
44457;BME280;30159;49.316;8.558;2022-11-21T09:59:32;99431.97;;;9.18;99.46
44457;BME280;30159;49.316;8.558;2022-11-21T10:01:59;99425.75;;;9.03;98.52
44457;BME280;30159;49.316;8.558;2022-11-21T10:04:29;99427.38;;;9.18;99.79
44457;BME280;30159;49.316;8.558;2022-11-21T10:07:01;99418.28;;;9.33;100.00
44457;BME280;30159;49.316;8.558;2022-11-21T10:09:40;99401.75;;;9.40;98.84
44457;BME280;30159;49.316;8.558;2022-11-21T10:12:17;99401.13;;;9.29;96.54
44457;BME280;30159;49.316;8.558;2022-11-21T10:15:14;99399.97;;;9.35;97.18
44457;BME280;30159;49.316;8.558;2022-11-21T10:17:49;99399.97;;;9.35;97.14
44457;BME280;30159;49.316;8.558;2022-11-21T10:20:32;99394.09;;;9.47;95.69
44457;BME280;30159;49.316;8.558;2022-11-21T10:23:13;99353.19;;;9.31;96.45
44457;BME280;30159;49.316;8.558;2022-11-21T10:25:52;99391.22;;;9.71;94.61
44457;BME280;30159;49.316;8.558;2022-11-21T10:28:22;99394.63;;;9.90;92.45
44457;BME280;30159;49.316;8.558;2022-11-21T10:30:54;99388.94;;;10.06;90.99
44457;BME280;30159;49.316;8.558;2022-11-21T10:33:27;99386.22;;;10.33;92.19
44457;BME280;30159;49.316;8.558;2022-11-21T10:35:58;99381.97;;;10.55;88.39
44457;BME280;30159;49.316;8.558;2022-11-21T10:38:28;99376.19;;;10.62;88.50
44457;BME280;30159;49.316;8.558;2022-11-21T10:41:00;99371.09;;;10.83;89.26
44457;BME280;30159;49.316;8.558;2022-11-21T10:43:33;99369.94;;;10.75;86.37
44457;BME280;30159;49.316;8.558;2022-11-21T10:46:20;99365.19;;;10.58;86.38
44457;BME280;30159;49.316;8.558;2022-11-21T10:48:54;99328.53;;;10.34;88.71
44457;BME280;30159;49.316;8.558;2022-11-21T10:51:37;99339.38;;;10.43;87.88
44457;BME280;30159;49.316;8.558;2022-11-21T10:54:09;99309.00;;;10.15;87.20
44457;BME280;30159;49.316;8.558;2022-11-21T10:56:57;99289.00;;;10.16;87.42
44457;BME280;30159;49.316;8.558;2022-11-21T10:59:26;99277.66;;;10.19;87.96
44457;BME280;30159;49.316;8.558;2022-11-21T11:01:56;99321.41;;;10.75;88.25
44457;BME280;30159;49.316;8.558;2022-11-21T11:04:24;99312.25;;;11.07;85.93
44457;BME280;30159;49.316;8.558;2022-11-21T11:06:51;99318.84;;;11.32;84.13
44457;BME280;30159;49.316;8.558;2022-11-21T11:09:26;99308.44;;;11.48;83.31
44457;BME280;30159;49.316;8.558;2022-11-21T11:12:18;99296.25;;;11.59;83.52
44457;BME280;30159;49.316;8.558;2022-11-21T11:14:49;99303.28;;;11.29;83.51
44457;BME280;30159;49.316;8.558;2022-11-21T11:17:25;99292.78;;;11.19;82.42
44457;BME280;30159;49.316;8.558;2022-11-21T11:19:59;99293.16;;;11.04;83.97
44457;BME280;30159;49.316;8.558;2022-11-21T11:22:27;99239.66;;;10.74;84.24
44457;BME280;30159;49.316;8.558;2022-11-21T11:24:54;99282.22;;;11.09;84.28
44457;BME280;30159;49.316;8.558;2022-11-21T11:27:25;99280.84;;;11.20;84.70
44457;BME280;30159;49.316;8.558;2022-11-21T11:29:52;99271.28;;;11.14;85.24
44457;BME280;30159;49.316;8.558;2022-11-21T11:32:20;99261.56;;;11.04;87.00
44457;BME280;30159;49.316;8.558;2022-11-21T11:34:56;99263.03;;;11.10;87.59
44457;BME280;30159;49.316;8.558;2022-11-21T11:37:31;99250.53;;;11.23;86.28
44457;BME280;30159;49.316;8.558;2022-11-21T11:40:06;99240.31;;;11.51;86.35
44457;BME280;30159;49.316;8.558;2022-11-21T11:42:55;99237.16;;;11.67;84.53
44457;BME280;30159;49.316;8.558;2022-11-21T11:45:54;99222.91;;;11.75;84.01
44457;BME280;30159;49.316;8.558;2022-11-21T11:48:42;99237.69;;;11.77;81.16
44457;BME280;30159;49.316;8.558;2022-11-21T11:51:20;99212.78;;;11.32;83.23
44457;BME280;30159;49.316;8.558;2022-11-21T11:53:50;99229.22;;;11.13;86.15
44457;BME280;30159;49.316;8.558;2022-11-21T11:56:20;99229.97;;;10.96;86.91
44457;BME280;30159;49.316;8.558;2022-11-21T11:58:50;99226.28;;;10.92;88.12
44457;BME280;30159;49.316;8.558;2022-11-21T12:01:22;99225.31;;;10.88;88.85
44457;BME280;30159;49.316;8.558;2022-11-21T12:03:57;99218.97;;;10.92;87.37
44457;BME280;30159;49.316;8.558;2022-11-21T12:06:25;99213.34;;;11.11;88.18
44457;BME280;30159;49.316;8.558;2022-11-21T12:08:57;99210.03;;;11.23;87.36
44457;BME280;30159;49.316;8.558;2022-11-21T12:11:33;99201.50;;;11.30;88.59
44457;BME280;30159;49.316;8.558;2022-11-21T12:14:32;99195.91;;;11.17;86.76
44457;BME280;30159;49.316;8.558;2022-11-21T12:17:24;99199.94;;;10.89;84.99
44457;BME280;30159;49.316;8.558;2022-11-21T12:19:55;99196.16;;;10.67;84.09
44457;BME280;30159;49.316;8.558;2022-11-21T12:22:23;99187.22;;;10.58;85.87
44457;BME280;30159;49.316;8.558;2022-11-21T12:24:50;99181.38;;;10.56;86.12
44457;BME280;30159;49.316;8.558;2022-11-21T12:27:23;99177.47;;;10.40;85.63
44457;BME280;30159;49.316;8.558;2022-11-21T12:30:05;99179.78;;;10.32;86.34
44457;BME280;30159;49.316;8.558;2022-11-21T12:32:45;99174.41;;;10.32;87.51
44457;BME280;30159;49.316;8.558;2022-11-21T12:35:40;99169.00;;;10.32;88.92
44457;BME280;30159;49.316;8.558;2022-11-21T12:38:17;99170.13;;;10.31;89.75
44457;BME280;30159;49.316;8.558;2022-11-21T12:40:57;99164.06;;;10.26;89.92
44457;BME280;30159;49.316;8.558;2022-11-21T12:44:01;99150.47;;;10.31;90.46
44457;BME280;30159;49.316;8.558;2022-11-21T12:46:37;99077.63;;;9.91;91.89
44457;BME280;30159;49.316;8.558;2022-11-21T12:49:14;99127.84;;;10.41;90.41
44457;BME280;30159;49.316;8.558;2022-11-21T12:52:12;99113.16;;;10.55;89.23
44457;BME280;30159;49.316;8.558;2022-11-21T12:55:13;99135.56;;;10.65;88.84
44457;BME280;30159;49.316;8.558;2022-11-21T12:58:04;99123.84;;;10.61;87.11
44457;BME280;30159;49.316;8.558;2022-11-21T13:00:41;99081.44;;;10.21;88.27
44457;BME280;30159;49.316;8.558;2022-11-21T13:03:38;99113.63;;;10.49;88.08
44457;BME280;30159;49.316;8.558;2022-11-21T13:06:11;99093.53;;;10.32;88.64
44457;BME280;30159;49.316;8.558;2022-11-21T13:08:41;99096.00;;;10.20;87.31
44457;BME280;30159;49.316;8.558;2022-11-21T13:11:11;99030.56;;;9.88;87.78
44457;BME280;30159;49.316;8.558;2022-11-21T13:14:01;99087.56;;;10.36;88.31
44457;BME280;30159;49.316;8.558;2022-11-21T13:16:31;99083.50;;;10.47;86.36